Terminal Aerodrome Forecast
Issued by NWS

Home | Current Version | Previous Version | Text Only | Print | Product List | Glossary On
Versions: 1 2 3 4 5 6 7 8 9 10 11 12 13 14 15 16 17 18 19 20 21
485
FTUS45 KRIW 231738
TAFJAC
TAF
KJAC 231738Z 2318/2418 34008KT P6SM SCT030
      TEMPO 2318/2320 BKN030
     FM232000 33008KT P6SM VCSH BKN040
     FM240200 01011G16KT P6SM VCSH SCT040 BKN100
      AMD LTD TO CLD VIS AND WIND=

USA.gov is the U.S. government's official web portal to all federal, state and local government web resources and services.